Time;durP1;ratioP1;P1;durP2;ratioP2;P2;SDS_P1;SDS_P2;PMS_P1;PMS_P2;Temp;Humidity;BMP_temperature;BMP_pressure;BME280_temperature;BME280_humidity;BME280_pressure;Samples;Min_cycle;Max_cycle;Signal;HPM_P1;HPM_P2
2022/04/11 00:01:32;;;;;;;5.53;2.38;;;8.30;99.90;;;;;;5053040;28;20476;-89
2022/04/11 00:03:57;;;;;;;4.97;2.65;;;8.30;99.90;;;;;;5035429;28;20484;-89
2022/04/11 00:06:23;;;;;;;4.30;2.60;;;8.30;99.90;;;;;;5035451;28;20028;-89
2022/04/11 00:08:49;;;;;;;6.13;2.58;;;8.30;99.90;;;;;;5035340;28;20480;-89
2022/04/11 00:11:14;;;;;;;4.63;2.58;;;8.30;99.90;;;;;;5035320;28;20541;-89
2022/04/11 00:13:40;;;;;;;4.72;2.88;;;8.20;99.90;;;;;;5035233;28;20029;-89
2022/04/11 00:16:07;;;;;;;5.82;2.40;;;8.20;99.90;;;;;;5035162;28;20033;-89
2022/04/11 00:18:36;;;;;;;5.45;2.67;;;8.20;99.90;;;;;;5035150;28;20036;-88
2022/04/11 00:21:02;;;;;;;4.53;2.63;;;8.20;99.90;;;;;;5034849;28;20407;-89
2022/04/11 00:23:28;;;;;;;5.80;3.00;;;8.20;99.90;;;;;;5035118;28;20028;-89
2022/04/11 00:25:54;;;;;;;4.90;2.33;;;8.20;99.90;;;;;;5052811;28;20016;-89
2022/04/11 00:28:19;;;;;;;6.38;2.50;;;8.20;99.90;;;;;;5052908;28;20067;-89
2022/04/11 00:30:45;;;;;;;4.25;2.28;;;8.20;99.90;;;;;;5034995;28;20032;-89
2022/04/11 00:33:11;;;;;;;3.83;2.25;;;8.20;99.90;;;;;;5035036;28;20025;-89
2022/04/11 00:35:37;;;;;;;4.85;2.40;;;8.20;99.90;;;;;;5035222;28;20025;-89
2022/04/11 00:38:03;;;;;;;7.00;2.40;;;8.20;99.90;;;;;;5052958;28;20056;-89
2022/04/11 00:40:29;;;;;;;4.90;2.20;;;8.20;99.90;;;;;;5052986;28;20029;-89
2022/04/11 00:42:54;;;;;;;4.03;2.35;;;8.20;99.90;;;;;;5034929;28;20025;-89
2022/04/11 00:45:20;;;;;;;5.43;3.00;;;8.10;99.90;;;;;;5052776;28;20025;-89
2022/04/11 00:47:46;;;;;;;4.35;2.40;;;8.10;99.90;;;;;;5035413;28;20021;-89
2022/04/11 00:50:13;;;;;;;5.18;2.15;;;8.10;99.90;;;;;;5035295;28;20025;-88
2022/04/11 00:52:49;;;;;;;4.43;2.60;;;8.10;99.90;;;;;;5034937;28;20056;-89
2022/04/11 00:55:18;;;;;;;3.92;2.70;;;8.10;99.90;;;;;;5034774;28;20025;-89
2022/04/11 00:57:44;;;;;;;5.10;2.20;;;8.10;99.90;;;;;;5052756;28;20036;-89
2022/04/11 01:00:10;;;;;;;4.53;2.50;;;8.10;99.90;;;;;;5034821;28;20029;-89
2022/04/11 01:02:36;;;;;;;3.85;2.45;;;8.10;99.90;;;;;;5034738;28;20036;-89
2022/04/11 01:05:07;;;;;;;2.92;2.03;;;8.10;99.90;;;;;;5038149;28;20029;-89
2022/04/11 01:07:32;;;;;;;5.88;2.30;;;8.10;99.90;;;;;;5038974;28;20021;-90
2022/04/11 01:09:58;;;;;;;7.05;2.50;;;8.10;99.90;;;;;;5038652;28;20117;-90
2022/04/11 01:12:25;;;;;;;5.00;2.15;;;8.10;99.90;;;;;;5056464;28;20383;-89
2022/04/11 01:14:51;;;;;;;5.60;2.65;;;8.10;99.90;;;;;;5038637;28;20025;-89
2022/04/11 01:17:17;;;;;;;3.45;2.28;;;8.00;99.90;;;;;;5038511;28;20136;-89
2022/04/11 01:19:42;;;;;;;4.85;2.38;;;8.00;99.90;;;;;;5038499;28;20384;-89
2022/04/11 01:22:08;;;;;;;4.80;2.50;;;8.10;99.90;;;;;;5056030;28;20361;-90
2022/04/11 01:24:36;;;;;;;6.35;2.53;;;8.00;99.90;;;;;;5038315;28;20385;-89
2022/04/11 01:27:02;;;;;;;4.43;2.50;;;8.00;99.90;;;;;;5038282;28;20087;-89
2022/04/11 01:29:28;;;;;;;5.22;2.50;;;8.00;99.90;;;;;;5038317;28;20040;-89
2022/04/11 01:31:54;;;;;;;4.47;2.17;;;8.00;99.90;;;;;;5038124;28;20061;-89
2022/04/11 01:34:19;;;;;;;4.88;2.22;;;8.10;99.90;;;;;;5038072;28;20029;-90
2022/04/11 01:36:45;;;;;;;3.50;2.25;;;8.10;99.90;;;;;;5055970;28;20060;-89
2022/04/11 01:39:11;;;;;;;4.15;2.55;;;8.10;99.90;;;;;;5055974;28;20032;-90
2022/04/11 01:41:36;;;;;;;3.72;2.42;;;8.10;99.90;;;;;;5038405;28;20464;-90
2022/04/11 01:44:02;;;;;;;4.20;2.38;;;8.00;99.90;;;;;;5038301;28;20024;-89
2022/04/11 01:46:28;;;;;;;4.70;2.60;;;8.00;99.90;;;;;;5055801;28;20025;-89
2022/04/11 01:48:54;;;;;;;4.88;2.80;;;8.00;99.90;;;;;;5037839;28;20029;-89
2022/04/11 01:51:19;;;;;;;5.15;2.42;;;8.10;99.90;;;;;;5037695;28;20021;-89
2022/04/11 01:53:45;;;;;;;3.83;2.40;;;8.00;99.90;;;;;;5055660;28;20435;-89
2022/04/11 01:56:11;;;;;;;4.65;2.20;;;7.90;99.90;;;;;;5037640;28;20052;-89
2022/04/11 01:58:37;;;;;;;4.25;2.42;;;7.90;99.90;;;;;;5037576;28;20028;-89
2022/04/11 02:01:03;;;;;;;4.13;2.40;;;7.90;99.90;;;;;;5037458;28;20082;-89
2022/04/11 02:03:31;;;;;;;3.30;2.25;;;7.90;99.90;;;;;;5037582;28;20032;-88
2022/04/11 02:05:57;;;;;;;4.75;2.65;;;7.90;99.90;;;;;;5037549;28;20112;-89
2022/04/11 02:08:23;;;;;;;5.38;2.33;;;7.90;99.90;;;;;;5037351;28;20136;-88
2022/04/11 02:10:48;;;;;;;4.55;2.08;;;7.90;99.90;;;;;;5037404;28;20540;-89
2022/04/11 02:13:14;;;;;;;4.75;2.42;;;7.90;99.90;;;;;;5038007;28;20028;-88
2022/04/11 02:15:40;;;;;;;5.30;2.50;;;7.90;99.90;;;;;;5036946;28;20021;-88
2022/04/11 02:18:06;;;;;;;3.83;2.25;;;7.90;99.90;;;;;;5037297;28;20490;-89
2022/04/11 02:20:31;;;;;;;3.30;2.13;;;7.90;99.90;;;;;;5036983;28;20174;-89
2022/04/11 02:22:59;;;;;;;4.60;2.55;;;7.80;99.90;;;;;;5055288;28;20111;-89
2022/04/11 02:25:27;;;;;;;3.53;2.17;;;7.90;99.90;;;;;;5037172;28;20033;-89
2022/04/11 02:27:57;;;;;;;5.10;2.00;;;7.80;99.90;;;;;;5037205;28;20025;-89
2022/04/11 02:30:24;;;;;;;3.38;2.47;;;7.80;99.90;;;;;;5054925;28;20025;-89
2022/04/11 02:32:51;;;;;;;4.00;2.13;;;7.80;99.90;;;;;;5036869;28;20032;-88
2022/04/11 02:35:17;;;;;;;5.50;2.40;;;7.80;99.90;;;;;;5036893;28;20025;-88
2022/04/11 02:37:44;;;;;;;3.55;2.25;;;7.80;99.90;;;;;;5037099;28;20027;-89
2022/04/11 02:40:12;;;;;;;5.32;2.20;;;7.80;99.90;;;;;;5036826;28;20111;-88
2022/04/11 02:42:41;;;;;;;3.97;2.45;;;7.80;99.90;;;;;;5036787;28;20028;-88
2022/04/11 02:45:08;;;;;;;5.72;2.55;;;7.80;99.90;;;;;;5036815;28;20051;-89
2022/04/11 02:47:34;;;;;;;3.92;2.15;;;7.80;99.90;;;;;;5054505;28;20020;-88
2022/04/11 02:49:59;;;;;;;4.75;2.17;;;7.80;99.90;;;;;;5037137;28;20021;-88
2022/04/11 02:52:25;;;;;;;5.43;2.85;;;7.80;99.90;;;;;;5036658;28;20150;-89
2022/04/11 02:54:51;;;;;;;3.17;2.30;;;7.80;99.90;;;;;;5037046;28;20021;-89
2022/04/11 02:57:17;;;;;;;5.00;2.63;;;7.80;99.90;;;;;;5036673;28;20032;-89
2022/04/11 02:59:42;;;;;;;3.08;2.38;;;7.80;99.90;;;;;;5036590;28;20029;-89
2022/04/11 03:02:08;;;;;;;5.60;2.50;;;7.70;99.90;;;;;;5036388;28;20065;-89
2022/04/11 03:04:34;;;;;;;4.22;2.47;;;7.80;99.90;;;;;;5036541;28;20111;-89
2022/04/11 03:06:59;;;;;;;3.92;2.83;;;7.80;99.90;;;;;;5036359;28;20388;-89
2022/04/11 03:09:25;;;;;;;3.22;2.10;;;7.80;99.90;;;;;;5036276;28;20017;-88
2022/04/11 03:11:50;;;;;;;5.07;2.92;;;7.80;99.90;;;;;;5054150;28;20075;-89
2022/04/11 03:14:16;;;;;;;3.88;2.35;;;7.70;99.90;;;;;;5036221;28;20032;-88
2022/04/11 03:16:42;;;;;;;3.90;2.40;;;7.70;99.90;;;;;;5036082;28;20120;-89
2022/04/11 03:19:08;;;;;;;7.28;2.60;;;7.90;99.90;;;;;;5036104;28;20057;-89
2022/04/11 03:21:34;;;;;;;5.07;2.38;;;7.90;99.90;;;;;;5035709;28;20037;-89
2022/04/11 03:24:00;;;;;;;6.28;2.63;;;7.90;99.90;;;;;;5054110;28;20032;-89
2022/04/11 03:26:25;;;;;;;4.40;2.30;;;7.90;99.90;;;;;;5053344;28;20055;-89
2022/04/11 03:28:51;;;;;;;3.00;2.10;;;7.80;99.90;;;;;;5035907;28;20057;-88
2022/04/11 03:31:17;;;;;;;3.35;2.20;;;7.80;99.90;;;;;;5035795;28;20021;-89
2022/04/11 03:33:43;;;;;;;5.47;2.50;;;7.80;99.90;;;;;;5035721;28;20101;-89
2022/04/11 03:36:09;;;;;;;4.22;2.22;;;7.80;99.90;;;;;;5053658;28;20025;-88
2022/04/11 03:38:35;;;;;;;3.40;2.45;;;7.80;99.90;;;;;;5035610;28;20024;-88
2022/04/11 03:41:01;;;;;;;4.97;2.47;;;7.80;99.90;;;;;;5035534;28;20203;-89
2022/04/11 03:43:27;;;;;;;4.47;2.80;;;7.80;99.90;;;;;;5053479;28;20154;-89
2022/04/11 03:45:53;;;;;;;6.55;2.45;;;7.80;99.90;;;;;;5053459;28;20025;-88
2022/04/11 03:48:19;;;;;;;3.42;2.10;;;7.80;99.90;;;;;;5053425;28;20025;-89
2022/04/11 03:50:45;;;;;;;3.97;2.40;;;7.70;99.90;;;;;;5035674;28;20035;-89
2022/04/11 03:53:11;;;;;;;4.03;2.38;;;7.60;99.90;;;;;;5035517;28;20112;-88
2022/04/11 03:55:36;;;;;;;4.85;2.38;;;7.60;99.90;;;;;;5035536;28;20535;-88
2022/04/11 03:58:02;;;;;;;5.00;2.53;;;7.80;99.90;;;;;;5035312;28;20142;-89
2022/04/11 04:00:28;;;;;;;4.45;2.40;;;7.70;99.90;;;;;;5035429;28;20499;-88
2022/04/11 04:02:53;;;;;;;5.35;2.38;;;7.70;99.90;;;;;;5053209;28;20502;-89
2022/04/11 04:05:19;;;;;;;5.85;2.58;;;7.70;99.90;;;;;;5035343;28;20029;-89
2022/04/11 04:07:45;;;;;;;4.85;2.33;;;7.60;99.90;;;;;;5035299;28;20027;-89
2022/04/11 04:10:10;;;;;;;4.22;2.70;;;7.60;99.90;;;;;;5035589;28;20426;-87
2022/04/11 04:12:36;;;;;;;4.20;2.33;;;7.60;99.90;;;;;;5035246;28;20028;-88
2022/04/11 04:15:05;;;;;;;5.60;2.28;;;7.60;99.90;;;;;;5035194;28;20029;-89
2022/04/11 04:17:31;;;;;;;6.55;2.40;;;7.60;99.90;;;;;;5035071;28;20029;-88
2022/04/11 04:19:56;;;;;;;4.35;2.03;;;7.70;99.90;;;;;;5035074;28;20040;-89
2022/04/11 04:22:22;;;;;;;3.55;2.30;;;7.60;99.90;;;;;;5034968;28;20041;-89
2022/04/11 04:24:48;;;;;;;3.90;2.60;;;7.50;99.90;;;;;;5034974;28;20024;-89
2022/04/11 04:27:14;;;;;;;4.70;2.70;;;7.50;99.90;;;;;;5035044;28;20111;-89
2022/04/11 04:29:39;;;;;;;5.13;2.55;;;7.60;99.90;;;;;;5034962;28;20029;-89
2022/04/11 04:32:05;;;;;;;3.83;2.60;;;7.50;99.90;;;;;;5052872;28;20024;-89
2022/04/11 04:34:31;;;;;;;4.45;2.70;;;7.50;99.90;;;;;;5035010;28;20111;-89
2022/04/11 04:36:58;;;;;;;5.20;2.85;;;7.50;99.90;;;;;;5053105;28;20053;-88
2022/04/11 04:39:27;;;;;;;5.03;2.67;;;7.50;99.90;;;;;;5039027;28;20121;-89
2022/04/11 04:41:53;;;;;;;8.38;2.80;;;7.50;99.90;;;;;;5038842;28;20468;-89
2022/04/11 04:44:18;;;;;;;6.18;2.35;;;7.50;99.90;;;;;;5039136;28;20036;-88
2022/04/11 04:46:44;;;;;;;6.35;2.72;;;7.50;99.90;;;;;;5057075;28;20480;-89
2022/04/11 04:49:10;;;;;;;5.90;2.72;;;7.50;99.90;;;;;;5056840;28;20021;-89
2022/04/11 04:51:35;;;;;;;4.75;2.72;;;7.40;99.90;;;;;;5056536;28;20074;-89
2022/04/11 04:54:01;;;;;;;6.13;2.97;;;7.50;99.90;;;;;;5038876;28;20369;-89
2022/04/11 04:56:28;;;;;;;4.82;2.60;;;7.50;99.90;;;;;;5038796;28;20040;-88
2022/04/11 04:58:54;;;;;;;3.97;2.95;;;7.40;99.90;;;;;;5056658;28;20070;-88
2022/04/11 05:01:20;;;;;;;5.32;3.00;;;7.40;99.90;;;;;;5038695;28;20033;-88
2022/04/11 05:03:46;;;;;;;4.90;2.75;;;7.40;99.90;;;;;;5038683;28;20029;-89
2022/04/11 05:06:11;;;;;;;5.07;2.72;;;7.40;99.90;;;;;;5056690;28;20388;-89
2022/04/11 05:08:37;;;;;;;4.03;2.70;;;7.40;99.90;;;;;;5038623;28;20448;-89
2022/04/11 05:11:03;;;;;;;3.15;2.50;;;7.40;99.90;;;;;;5038559;28;20113;-89
2022/04/11 05:13:28;;;;;;;4.75;3.17;;;7.40;99.90;;;;;;5056384;28;20075;-88
2022/04/11 05:15:54;;;;;;;4.82;2.63;;;7.40;99.90;;;;;;5056693;28;20025;-88
2022/04/11 05:18:20;;;;;;;4.00;2.75;;;7.40;99.90;;;;;;5038362;28;20117;-89
2022/04/11 05:20:45;;;;;;;4.88;2.75;;;7.40;99.90;;;;;;5038194;28;20068;-89
2022/04/11 05:23:11;;;;;;;5.22;2.83;;;7.40;99.90;;;;;;5038519;28;20476;-88
2022/04/11 05:25:37;;;;;;;6.22;3.08;;;7.40;99.90;;;;;;5038155;28;20104;-88
2022/04/11 05:28:03;;;;;;;6.15;3.20;;;7.40;99.90;;;;;;5038165;28;20048;-89
2022/04/11 05:30:33;;;;;;;7.60;3.25;;;7.40;99.90;;;;;;5038160;28;20484;-89
2022/04/11 05:33:00;;;;;;;7.47;4.30;;;7.40;99.90;;;;;;5038057;28;20036;-88
2022/04/11 05:35:26;;;;;;;7.63;3.97;;;7.40;99.90;;;;;;5055962;28;20025;-89
2022/04/11 05:37:52;;;;;;;7.53;4.03;;;7.40;99.90;;;;;;5038119;28;20420;-88
2022/04/11 05:40:17;;;;;;;9.98;4.35;;;7.40;99.90;;;;;;5038120;28;20033;-89
2022/04/11 05:42:43;;;;;;;8.65;4.15;;;7.40;99.90;;;;;;5056185;28;20027;-88
2022/04/11 05:45:09;;;;;;;7.63;4.30;;;7.40;99.90;;;;;;5038008;28;20056;-87
2022/04/11 05:47:34;;;;;;;14.32;4.95;;;7.40;99.90;;;;;;5056135;28;20025;-89
2022/04/11 05:50:00;;;;;;;8.98;4.45;;;7.40;99.90;;;;;;5037044;28;20028;-89
2022/04/11 05:52:26;;;;;;;7.28;3.97;;;7.40;99.90;;;;;;5055710;28;20499;-89
2022/04/11 05:54:51;;;;;;;7.10;4.38;;;7.40;99.90;;;;;;5055824;28;20064;-89
2022/04/11 05:57:17;;;;;;;6.60;3.95;;;7.40;99.90;;;;;;5037752;28;20029;-89
2022/04/11 05:59:42;;;;;;;7.60;4.40;;;7.40;99.90;;;;;;5037743;28;20021;-89
2022/04/11 06:02:10;;;;;;;5.93;3.80;;;7.40;99.90;;;;;;5055492;28;20411;-89
2022/04/11 06:04:37;;;;;;;7.25;4.10;;;7.40;99.90;;;;;;5055396;28;20426;-89
2022/04/11 06:07:03;;;;;;;5.82;3.60;;;7.40;99.90;;;;;;5037580;28;20017;-89
2022/04/11 06:09:30;;;;;;;8.77;4.13;;;7.40;99.90;;;;;;5037553;28;20028;-90
2022/04/11 06:11:56;;;;;;;6.28;3.80;;;7.40;99.90;;;;;;5037679;28;20105;-90
2022/04/11 06:14:22;;;;;;;7.40;3.90;;;7.40;99.90;;;;;;5055445;28;20110;-89
2022/04/11 06:16:47;;;;;;;7.93;3.90;;;7.40;99.90;;;;;;5037927;28;20446;-89
2022/04/11 06:19:13;;;;;;;7.13;4.00;;;7.40;99.90;;;;;;5037353;28;20021;-89
2022/04/11 06:21:39;;;;;;;4.32;3.33;;;7.40;99.90;;;;;;5037492;28;20071;-89
2022/04/11 06:24:05;;;;;;;6.07;3.50;;;7.40;99.90;;;;;;5037553;28;20021;-89
2022/04/11 06:26:31;;;;;;;7.03;3.70;;;7.50;99.90;;;;;;5037119;28;20055;-89
2022/04/11 06:28:56;;;;;;;5.45;3.25;;;7.50;99.90;;;;;;5037265;28;20060;-89
2022/04/11 06:31:22;;;;;;;6.30;3.35;;;7.50;99.90;;;;;;5037171;28;20028;-89
2022/04/11 06:33:48;;;;;;;6.68;3.60;;;7.50;99.90;;;;;;5054892;28;20496;-89
2022/04/11 06:36:13;;;;;;;7.07;3.60;;;7.50;99.90;;;;;;5037468;28;20427;-89
2022/04/11 06:38:39;;;;;;;5.82;3.63;;;7.50;99.90;;;;;;5054858;28;20041;-89
2022/04/11 06:41:04;;;;;;;8.30;3.50;;;7.50;99.90;;;;;;5037356;28;20441;-89
2022/04/11 06:43:30;;;;;;;7.25;3.58;;;7.50;99.90;;;;;;5036853;28;20369;-89
2022/04/11 06:45:56;;;;;;;7.10;3.80;;;7.60;99.90;;;;;;5054843;28;20077;-89
2022/04/11 06:48:22;;;;;;;6.53;3.45;;;7.60;99.90;;;;;;5036693;28;20029;-89
2022/04/11 06:50:50;;;;;;;5.75;3.33;;;7.60;99.90;;;;;;5036650;28;20035;-88
2022/04/11 06:53:15;;;;;;;6.00;3.47;;;7.60;99.90;;;;;;5054550;28;20174;-89
2022/04/11 06:55:42;;;;;;;8.77;4.03;;;7.60;99.90;;;;;;5036755;28;20520;-88
2022/04/11 06:58:08;;;;;;;5.20;3.47;;;7.70;99.90;;;;;;5054289;28;20068;-87
2022/04/11 07:00:34;;;;;;;6.65;3.55;;;7.70;99.90;;;;;;5035812;28;20047;-87
2022/04/11 07:02:59;;;;;;;7.35;3.40;;;7.70;99.90;;;;;;5035812;28;20049;-87
2022/04/11 07:05:25;;;;;;;6.55;3.58;;;7.70;99.90;;;;;;5036192;28;20044;-87
2022/04/11 07:07:50;;;;;;;4.97;2.90;;;7.70;99.90;;;;;;5054320;28;20032;-88
2022/04/11 07:10:16;;;;;;;9.02;4.00;;;7.80;99.90;;;;;;5036150;28;20025;-88
2022/04/11 07:12:42;;;;;;;8.88;3.17;;;7.80;99.90;;;;;;5036267;28;20392;-88
2022/04/11 07:15:09;;;;;;;5.22;3.15;;;7.80;99.90;;;;;;5036826;28;20037;-88
2022/04/11 07:17:35;;;;;;;6.05;2.97;;;7.80;99.90;;;;;;5036127;28;20025;-88
2022/04/11 07:20:02;;;;;;;8.52;3.78;;;7.80;99.90;;;;;;5036131;28;20055;-87
2022/04/11 07:22:28;;;;;;;5.60;3.58;;;7.80;99.90;;;;;;5035955;28;20544;-87
2022/04/11 07:24:54;;;;;;;6.57;3.63;;;7.90;99.90;;;;;;5053969;28;20021;-88
2022/04/11 07:27:19;;;;;;;5.53;3.35;;;7.90;99.90;;;;;;5036011;28;20399;-88
2022/04/11 07:29:45;;;;;;;6.65;3.17;;;8.00;99.90;;;;;;5035789;28;20021;-88
2022/04/11 07:32:11;;;;;;;4.93;3.13;;;8.00;99.90;;;;;;5036264;28;20060;-88
2022/04/11 07:34:37;;;;;;;6.35;3.28;;;8.00;99.90;;;;;;5053822;28;20039;-87
2022/04/11 07:37:03;;;;;;;6.47;3.20;;;8.10;99.90;;;;;;5035829;28;20145;-88
2022/04/11 07:39:30;;;;;;;5.20;3.03;;;8.10;99.90;;;;;;5035787;28;20050;-87
2022/04/11 07:41:56;;;;;;;4.10;2.80;;;8.10;99.90;;;;;;5053551;28;20021;-87
2022/04/11 07:44:22;;;;;;;5.35;3.22;;;8.20;99.90;;;;;;5035770;28;20036;-87
2022/04/11 07:46:48;;;;;;;6.75;3.25;;;8.20;99.90;;;;;;5035640;28;20021;-88
2022/04/11 07:49:13;;;;;;;5.25;3.38;;;8.20;99.90;;;;;;5035724;28;20048;-86
2022/04/11 07:51:39;;;;;;;5.60;3.25;;;8.20;99.90;;;;;;5035556;28;20029;-88
2022/04/11 07:54:05;;;;;;;5.53;3.17;;;8.30;99.90;;;;;;5035664;28;20025;-87
2022/04/11 07:56:30;;;;;;;10.43;3.13;;;8.30;99.90;;;;;;5035471;28;20119;-87
2022/04/11 07:58:57;;;;;;;5.00;2.30;;;8.30;99.90;;;;;;5053382;28;20025;-87
2022/04/11 08:01:23;;;;;;;6.53;3.03;;;8.40;99.90;;;;;;5053054;28;20476;-87
2022/04/11 08:03:49;;;;;;;7.40;3.20;;;8.40;99.90;;;;;;5035490;28;20025;-87
2022/04/11 08:06:16;;;;;;;9.30;2.47;;;8.40;99.90;;;;;;5035435;28;20025;-87
2022/04/11 08:08:46;;;;;;;5.68;2.90;;;8.50;99.90;;;;;;5035286;28;20029;-87
2022/04/11 08:11:15;;;;;;;6.07;2.70;;;8.50;99.90;;;;;;5053163;28;20017;-87
2022/04/11 08:13:42;;;;;;;8.25;3.10;;;8.60;99.90;;;;;;5052855;28;20017;-87
2022/04/11 08:16:08;;;;;;;7.13;3.22;;;8.60;99.90;;;;;;5035416;28;20118;-87
2022/04/11 08:18:33;;;;;;;5.28;2.70;;;8.60;99.90;;;;;;5035079;28;20108;-86
2022/04/11 08:21:01;;;;;;;4.72;2.72;;;8.70;99.90;;;;;;5027227;28;20050;-86
2022/04/11 08:23:28;;;;;;;5.70;2.53;;;8.70;99.90;;;;;;5015456;28;20049;-87
2022/04/11 08:25:53;;;;;;;6.07;2.75;;;8.70;99.90;;;;;;5033050;28;20021;-86
2022/04/11 08:28:20;;;;;;;9.35;3.20;;;8.80;99.90;;;;;;5015376;28;20057;-87
2022/04/11 08:30:46;;;;;;;4.05;2.78;;;8.80;99.90;;;;;;5033141;28;20022;-86
2022/04/11 08:33:12;;;;;;;6.93;2.88;;;8.80;99.90;;;;;;5033033;28;20026;-87
2022/04/11 08:35:38;;;;;;;6.47;3.22;;;8.90;99.90;;;;;;5015846;28;20049;-87
2022/04/11 08:38:03;;;;;;;6.70;3.17;;;8.90;99.90;;;;;;5015157;28;20029;-87
2022/04/11 08:40:30;;;;;;;5.20;3.05;;;8.90;99.90;;;;;;5032904;28;20025;-87
2022/04/11 08:42:55;;;;;;;8.13;4.47;;;9.00;99.90;;;;;;5015186;28;20025;-86
2022/04/11 08:45:23;;;;;;;7.65;3.45;;;9.10;99.90;;;;;;5015134;28;20473;-86
2022/04/11 08:47:50;;;;;;;7.10;3.90;;;9.00;99.90;;;;;;5033130;28;20025;-87
2022/04/11 08:50:17;;;;;;;6.18;3.50;;;9.10;99.90;;;;;;5015055;28;20021;-87
2022/04/11 08:52:43;;;;;;;5.32;3.40;;;9.10;99.90;;;;;;5014954;28;20503;-87
2022/04/11 08:55:10;;;;;;;6.40;3.30;;;9.10;99.90;;;;;;5015102;28;20538;-87
2022/04/11 08:57:37;;;;;;;4.68;2.83;;;9.20;99.90;;;;;;5032742;28;20025;-87
2022/04/11 09:00:09;;;;;;;6.35;2.92;;;9.20;99.90;;;;;;5032690;28;20500;-87
2022/04/11 09:02:35;;;;;;;6.47;2.78;;;9.30;99.90;;;;;;5014815;28;20030;-86
2022/04/11 09:05:02;;;;;;;5.10;2.47;;;9.30;99.90;;;;;;5014890;28;20026;-87
2022/04/11 09:07:43;;;;;;;6.75;3.00;;;9.30;99.90;;;;;;5014951;28;20017;-86
2022/04/11 09:10:09;;;;;;;4.57;2.65;;;9.40;99.90;;;;;;5014961;28;20392;-86
2022/04/11 09:12:51;;;;;;;5.47;2.88;;;9.40;99.90;;;;;;5015386;28;20419;-87
2022/04/11 09:15:18;;;;;;;5.90;2.40;;;9.40;99.90;;;;;;5015022;28;20025;-87
2022/04/11 09:17:44;;;;;;;5.78;2.60;;;9.50;99.90;;;;;;5014721;28;20389;-87
2022/04/11 09:20:10;;;;;;;5.70;2.95;;;9.50;99.90;;;;;;5015586;28;20025;-87
2022/04/11 09:22:36;;;;;;;5.70;2.78;;;9.50;99.90;;;;;;5034522;28;20033;-87
2022/04/11 09:25:12;;;;;;;5.05;2.63;;;9.60;99.90;;;;;;5036508;28;20029;-87
2022/04/11 09:27:38;;;;;;;3.30;2.13;;;9.50;99.90;;;;;;5038606;28;20369;-87
2022/04/11 09:30:26;;;;;;;7.90;2.90;;;9.60;99.90;;;;;;5038209;28;20171;-87
2022/04/11 09:32:57;;;;;;;4.57;2.50;;;9.70;99.90;;;;;;5038123;28;20392;-87
2022/04/11 09:35:25;;;;;;;5.10;2.50;;;9.70;99.90;;;;;;5056042;28;20024;-87
2022/04/11 09:38:16;;;;;;;4.93;2.40;;;9.70;99.90;;;;;;5038001;28;20071;-87
2022/04/11 09:40:43;;;;;;;3.78;1.95;;;9.70;99.90;;;;;;5055946;28;20029;-87
2022/04/11 09:43:11;;;;;;;3.88;2.30;;;9.80;99.90;;;;;;5055794;28;20021;-88
2022/04/11 09:45:45;;;;;;;4.45;2.20;;;9.90;99.90;;;;;;5055756;28;20476;-87
2022/04/11 09:48:22;;;;;;;4.32;2.20;;;9.90;99.90;;;;;;5037967;28;20478;-87
2022/04/11 09:50:49;;;;;;;3.63;2.20;;;9.90;99.90;;;;;;5038006;28;20032;-87
2022/04/11 09:53:21;;;;;;;3.95;2.25;;;9.90;99.90;;;;;;5037905;28;20029;-87
2022/04/11 09:55:50;;;;;;;3.88;2.00;;;9.90;99.90;;;;;;5038165;28;20028;-87
2022/04/11 09:58:18;;;;;;;4.22;2.33;;;10.00;99.90;;;;;;5055645;28;20021;-87
2022/04/11 10:00:43;;;;;;;7.00;2.13;;;10.00;99.90;;;;;;5037491;28;20025;-86
2022/04/11 10:03:09;;;;;;;5.20;2.25;;;10.00;99.90;;;;;;5037536;28;20025;-86
2022/04/11 10:05:36;;;;;;;3.45;1.98;;;10.10;99.90;;;;;;5038234;28;20025;-88
2022/04/11 10:08:04;;;;;;;4.55;1.98;;;10.10;99.90;;;;;;5038044;28;20104;-87
2022/04/11 10:10:34;;;;;;;3.85;2.00;;;10.10;99.90;;;;;;5055569;28;20472;-88
2022/04/11 10:13:01;;;;;;;3.58;2.05;;;10.10;99.90;;;;;;5055206;28;20480;-87
2022/04/11 10:15:27;;;;;;;4.13;2.10;;;10.10;99.90;;;;;;5055687;28;20039;-88
2022/04/11 10:17:56;;;;;;;3.75;1.90;;;10.10;99.90;;;;;;5037911;28;20473;-88
2022/04/11 10:20:36;;;;;;;5.10;2.10;;;10.10;99.90;;;;;;5037600;28;20025;-87
2022/04/11 10:23:07;;;;;;;5.43;2.20;;;10.20;99.90;;;;;;5055312;28;20036;-88
2022/04/11 10:25:46;;;;;;;3.08;1.73;;;10.20;99.90;;;;;;5037728;28;20027;-88
2022/04/11 10:28:19;;;;;;;4.55;1.77;;;10.20;99.90;;;;;;5037904;28;20389;-88
2022/04/11 10:31:02;;;;;;;3.05;1.67;;;10.20;99.90;;;;;;5037599;28;20025;-88
2022/04/11 10:33:49;;;;;;;6.00;1.80;;;10.30;99.90;;;;;;5037529;28;20104;-88
2022/04/11 10:36:36;;;;;;;3.70;1.65;;;10.30;99.90;;;;;;5037226;28;20044;-88
2022/04/11 10:39:17;;;;;;;4.25;1.70;;;10.30;99.90;;;;;;5055233;28;20071;-87
2022/04/11 10:41:57;;;;;;;4.82;1.67;;;10.30;99.90;;;;;;5055018;28;20036;-87
2022/04/11 10:44:43;;;;;;;3.25;1.67;;;10.40;99.90;;;;;;5037980;28;20025;-86
2022/04/11 10:47:17;;;;;;;4.13;2.03;;;10.40;99.90;;;;;;5037657;28;20392;-86
2022/04/11 10:49:48;;;;;;;;;;;10.90;99.90;;;;;;5055870;28;20053;-88
2022/04/11 10:52:32;;;;;;;9.07;1.90;;;11.20;99.90;;;;;;5037321;28;19905;-88
2022/04/11 10:55:04;;;;;;;4.55;2.13;;;11.20;99.90;;;;;;5037423;28;20485;-87
2022/04/11 10:57:45;;;;;;;7.85;1.95;;;11.10;99.90;;;;;;5037209;28;20415;-88
2022/04/11 11:00:13;;;;;;;6.32;1.80;;;11.00;99.90;;;;;;5055167;28;20021;-88
2022/04/11 11:03:00;;;;;;;5.57;1.83;;;11.00;99.90;;;;;;5036590;28;20082;-88
2022/04/11 11:05:31;;;;;;;3.13;1.65;;;10.90;99.90;;;;;;5036356;28;20084;-88
2022/04/11 11:08:13;;;;;;;5.47;2.00;;;10.90;99.90;;;;;;5036565;28;20048;-87
2022/04/11 11:10:49;;;;;;;6.15;1.48;;;10.90;99.90;;;;;;5054603;28;20108;-88
2022/04/11 11:13:34;;;;;;;5.47;2.40;;;10.90;99.90;;;;;;5054242;28;20477;-85
2022/04/11 11:16:06;;;;;;;2.28;1.50;;;10.90;99.90;;;;;;5036243;28;20021;-88
2022/04/11 11:18:50;;;;;;;5.18;1.63;;;10.90;99.90;;;;;;5054391;28;20033;-88
2022/04/11 11:21:20;;;;;;;4.10;1.60;;;10.90;99.90;;;;;;5035818;28;20536;-89
2022/04/11 11:24:04;;;;;;;5.25;1.65;;;10.90;99.90;;;;;;5036041;28;20025;-88
2022/04/11 11:26:48;;;;;;;7.50;2.08;;;10.90;99.90;;;;;;5036111;28;20484;-88
2022/04/11 11:29:21;;;;;;;6.15;1.60;;;10.90;99.90;;;;;;5036835;28;20116;-88
2022/04/11 11:31:51;;;;;;;3.00;1.30;;;10.90;99.90;;;;;;5036014;28;20029;-87
2022/04/11 11:34:20;;;;;;;4.50;1.45;;;11.00;99.90;;;;;;5053847;28;20029;-89
2022/04/11 11:36:49;;;;;;;4.30;1.80;;;11.00;99.90;;;;;;5035951;28;20021;-88
2022/04/11 11:39:19;;;;;;;5.45;1.40;;;11.00;99.90;;;;;;5035826;28;20108;-89
2022/04/11 11:41:49;;;;;;;7.03;1.20;;;11.00;99.90;;;;;;5053719;28;20033;-89
2022/04/11 11:44:16;;;;;;;5.13;1.33;;;11.00;99.90;;;;;;5035783;28;20484;-88
2022/04/11 11:46:53;;;;;;;3.80;1.50;;;11.10;99.90;;;;;;5053550;28;20021;-89
2022/04/11 11:49:20;;;;;;;5.38;1.55;;;11.10;99.90;;;;;;5035667;28;20565;-89
2022/04/11 11:51:47;;;;;;;4.65;1.23;;;11.10;99.90;;;;;;5035583;28;20033;-89
2022/04/11 11:54:13;;;;;;;3.42;1.55;;;11.10;99.90;;;;;;5035578;28;20032;-89
2022/04/11 11:56:48;;;;;;;9.23;1.42;;;11.10;99.90;;;;;;5035559;28;20032;-89
2022/04/11 11:59:17;;;;;;;2.40;1.40;;;11.10;99.90;;;;;;5035824;28;20564;-89
2022/04/11 12:04:53;;;;;;;2.83;1.23;;;11.10;99.90;;;;;;5009126;28;20211;-89
2022/04/11 12:07:19;;;;;;;3.65;1.80;;;11.20;99.90;;;;;;5035602;28;20072;-90
2022/04/11 12:09:44;;;;;;;3.15;1.60;;;11.10;99.90;;;;;;5035697;28;20055;-89
2022/04/11 12:12:10;;;;;;;6.22;1.35;;;11.20;99.90;;;;;;5035514;28;20048;-90
2022/04/11 12:14:58;;;;;;;7.15;1.52;;;11.20;99.90;;;;;;5035467;28;20369;-89
2022/04/11 12:17:30;;;;;;;6.68;1.33;;;11.30;99.90;;;;;;5035416;28;20021;-90
2022/04/11 12:20:13;;;;;;;5.53;1.10;;;11.30;99.90;;;;;;5035387;28;20436;-89
2022/04/11 12:22:40;;;;;;;6.03;1.60;;;11.40;99.90;;;;;;5035455;28;20041;-89
2022/04/11 12:25:24;;;;;;;5.10;1.35;;;11.80;98.90;;;;;;5035134;28;20086;-88
2022/04/11 12:28:18;;;;;;;3.80;1.70;;;12.00;99.30;;;;;;5035022;28;20443;-88
2022/04/11 12:31:05;;;;;;;2.00;1.05;;;12.00;99.70;;;;;;5053181;28;20055;-87
2022/04/11 12:33:32;;;;;;;2.20;1.33;;;12.10;99.90;;;;;;5022568;28;20033;-90
2022/04/11 12:36:27;;;;;;;3.15;1.00;;;12.10;99.90;;;;;;5035678;28;20107;-89
2022/04/11 12:39:09;;;;;;;2.40;1.10;;;12.10;99.90;;;;;;5033819;28;20132;-90
2022/04/11 12:41:44;;;;;;;4.35;1.42;;;12.20;99.90;;;;;;5035138;28;20033;-90
2022/04/11 12:44:17;;;;;;;3.30;1.30;;;12.30;99.80;;;;;;5035097;28;20021;-90
2022/04/11 12:46:47;;;;;;;2.00;1.00;;;12.40;99.90;;;;;;5034995;28;20025;-90
2022/04/11 12:49:20;;;;;;;3.55;1.05;;;12.50;99.60;;;;;;5035100;28;20025;-90
2022/04/11 12:52:04;;;;;;;2.55;1.00;;;12.50;99.30;;;;;;5035519;28;20429;-89
2022/04/11 12:54:39;;;;;;;1.98;0.95;;;12.70;99.20;;;;;;5035098;28;20035;-90
2022/04/11 12:57:07;;;;;;;2.45;1.10;;;12.80;98.90;;;;;;5034953;28;20024;-90
2022/04/11 12:59:41;;;;;;;2.63;1.25;;;12.90;98.70;;;;;;5037594;28;20504;-90
2022/04/11 13:02:07;;;;;;;;;;;12.90;98.80;;;;;;5039358;28;20036;-89
2022/04/11 13:04:39;;;;;;;3.45;1.42;;;13.10;99.00;;;;;;5039002;28;19914;-90